CST,Max TemperatureF,Mean TemperatureF,Min TemperatureF,Max Dew PointF,MeanDew PointF,Min DewpointF,Max Humidity, Mean Humidity, Min Humidity, Max Sea Level PressureIn, Mean Sea Level PressureIn, Min Sea Level PressureIn, Max VisibilityMiles, Mean VisibilityMiles, Min VisibilityMiles, Max Wind SpeedMPH, Mean Wind SpeedMPH, Max Gust SpeedMPH,PrecipitationIn, CloudCover, Events, WindDirDegrees
2013-2-1,44,30,16,21,12,3,68,50,32,30.51,30.36,30.19,10,10,10,17,7,22,0.00,0,,109
2013-2-2,59,42,24,33,27,21,81,57,33,30.30,30.25,30.19,10,10,10,14,6,21,0.00,0,,261
2013-2-3,57,45,33,28,26,23,70,49,27,30.33,30.18,29.94,10,10,10,14,8,20,0.00,0,,164
2013-2-4,68,53,37,37,33,28,76,51,26,29.97,29.88,29.81,10,10,10,16,9,29,T,1,,324
2013-2-5,69,49,29,43,33,28,92,58,24,30.05,30.00,29.94,10,9,7,10,3,14,0.00,0,,354
2013-2-6,66,50,33,49,39,30,89,68,47,30.06,29.97,29.88,10,10,8,22,10,30,0.00,4,,150
2013-2-7,59,49,38,54,48,35,89,80,71,30.17,29.93,29.83,10,7,2,23,10,28,0.05,7,Rain,16
2013-2-8,51,43,34,33,32,30,92,71,50,30.35,30.26,30.19,10,6,2,17,6,23,0.00,3,,16
2013-2-9,44,40,36,42,36,32,96,82,67,30.19,29.99,29.75,10,7,4,22,13,28,0.01,6,Rain,142
2013-2-10,62,50,37,52,36,23,100,63,25,30.06,29.76,29.63,10,8,2,24,14,31,0.07,3,Rain-Thunderstorm,225
2013-2-11,54,41,28,27,24,23,75,52,29,30.25,30.16,30.06,10,10,10,14,5,20,0.00,0,,356
2013-2-12,44,37,30,37,32,26,100,79,57,30.13,30.04,29.96,10,7,2,16,8,20,0.25,7,Rain-Snow,356
2013-2-13,55,48,40,36,32,25,100,69,38,30.07,30.01,29.94,10,8,3,14,8,,0.01,5,Rain-Snow,262
2013-2-14,60,48,36,34,29,22,59,48,37,30.22,30.07,29.97,10,10,10,22,9,27,0.00,2,,313
2013-2-15,45,37,28,30,18,10,75,50,25,30.43,30.35,30.23,10,10,10,18,11,26,0.00,1,,335
2013-2-16,46,34,22,24,16,10,84,56,27,30.41,30.27,30.09,10,10,9,22,9,28,T,2,,227
2013-2-17,68,49,29,33,28,20,85,54,22,30.07,29.92,29.74,10,10,10,22,11,29,0.00,1,,159
2013-2-18,63,49,35,49,37,25,72,55,37,30.16,29.79,29.60,10,10,10,33,20,42,0.00,2,,263
2013-2-19,51,39,26,26,22,20,85,59,32,30.36,30.27,30.18,10,10,10,14,6,19,0.00,0,,5
2013-2-20,38,35,32,33,29,18,96,72,47,30.29,30.18,30.01,10,3,0,15,7,17,0.58,8,Fog-Rain-Snow,88
2013-2-21,36,32,27,35,32,19,100,89,78,30.01,29.82,29.70,10,6,1,21,10,26,0.86,8,Rain-Thunderstorm,70
2013-2-22,37,29,20,21,19,16,84,66,48,30.18,30.11,30.00,10,10,9,20,8,25,0.00,0,,297
2013-2-23,45,33,20,24,20,16,84,62,39,30.15,30.05,29.97,10,10,8,9,3,12,0.00,1,,151
2013-2-24,60,43,26,38,31,23,85,64,43,29.99,29.88,29.76,10,10,9,25,9,30,0.00,0,,123
2013-2-25,46,39,32,40,36,32,100,80,60,29.82,29.62,29.47,10,4,1,29,14,37,1.21,8,Rain-Snow-Thunderstorm,22
2013-2-26,42,37,31,35,32,28,100,85,70,29.94,29.69,29.50,9,6,1,25,15,34,0.14,7,Rain-Snow,322
2013-2-27,48,40,31,32,28,26,92,71,49,30.18,30.05,29.92,10,8,4,26,11,31,0.00,4,,296
2013-2-28,47,38,29,30,28,26,85,69,53,30.25,30.22,30.17,10,10,10,20,11,24,0.00,4,,325